Time;durP1;ratioP1;P1;durP2;ratioP2;P2;SDS_P1;SDS_P2;PMS_P1;PMS_P2;Temp;Humidity;BMP_temperature;BMP_pressure;BME280_temperature;BME280_humidity;BME280_pressure;Samples;Min_cycle;Max_cycle;Signal;HPM_P1;HPM_P2
2021/03/08 00:01:20;;;;;;;9.73;8.70;;;;;;;2.05;55.13;96958.22;5040872;28;20182;-67
2021/03/08 00:03:45;;;;;;;9.33;7.90;;;;;;;2.09;54.48;96964.66;5017419;28;20175;-67
2021/03/08 00:06:11;;;;;;;10.70;8.70;;;;;;;2.03;54.42;96965.34;5042660;28;20229;-68
2021/03/08 00:08:37;;;;;;;10.47;8.67;;;;;;;2.04;54.62;96969.53;5013384;28;20768;-67
2021/03/08 00:11:02;;;;;;;9.80;8.17;;;;;;;1.94;54.84;96964.59;5038139;28;20167;-68
2021/03/08 00:13:28;;;;;;;11.00;8.57;;;;;;;1.93;54.52;96964.75;5032735;28;20224;-68
2021/03/08 00:15:53;;;;;;;9.93;8.67;;;;;;;1.79;54.26;96962.84;5034913;28;20650;-67
2021/03/08 00:18:18;;;;;;;15.50;9.10;;;;;;;1.75;54.94;96966.75;5031026;28;20291;-68
2021/03/08 00:20:45;;;;;;;11.03;7.87;;;;;;;1.63;54.66;96967.09;5031637;28;20205;-67
2021/03/08 00:23:10;;;;;;;8.87;7.63;;;;;;;1.65;55.16;96954.03;5038978;28;20651;-67
2021/03/08 00:25:36;;;;;;;10.27;8.23;;;;;;;1.63;54.68;96969.69;5039230;28;20179;-68
2021/03/08 00:28:02;;;;;;;11.43;8.97;;;;;;;1.58;55.24;96960.81;5028076;28;20206;-68
2021/03/08 00:30:28;;;;;;;8.83;7.57;;;;;;;1.56;54.98;96960.97;5041256;28;20182;-68
2021/03/08 00:32:53;;;;;;;10.33;8.40;;;;;;;1.53;55.05;96961.31;5017100;28;20179;-68
2021/03/08 00:35:19;;;;;;;11.57;8.63;;;;;;;1.56;55.32;96957.63;5048089;28;20662;-67
2021/03/08 00:37:45;;;;;;;11.37;8.80;;;;;;;1.43;55.70;96957.31;5031969;28;20233;-68
2021/03/08 00:40:17;;;;;;;11.43;8.50;;;;;;;1.48;55.33;96953.28;5036481;28;20202;-67
2021/03/08 00:42:43;;;;;;;11.47;9.03;;;;;;;1.45;55.75;96956.16;5017048;28;20641;-68
2021/03/08 00:45:13;;;;;;;10.40;8.47;;;;;;;1.35;55.97;96952.16;5047861;28;20946;-68
2021/03/08 00:47:39;;;;;;;9.27;8.10;;;;;;;1.35;55.52;96957.31;5039655;28;20185;-68
2021/03/08 00:50:12;;;;;;;9.03;8.13;;;;;;;1.36;55.83;96953.78;5044558;28;20591;-67
2021/03/08 00:52:38;;;;;;;11.03;8.77;;;;;;;1.35;55.44;96958.13;5039657;28;20174;-68
2021/03/08 00:55:04;;;;;;;8.27;7.40;;;;;;;1.38;55.87;96951.84;5015598;28;20526;-67
2021/03/08 00:57:30;;;;;;;11.10;8.73;;;;;;;1.37;55.86;96947.66;5020672;28;20294;-68
2021/03/08 00:59:55;;;;;;;10.77;8.20;;;;;;;1.26;56.07;96956.53;5030918;28;20200;-68
2021/03/08 01:02:21;;;;;;;11.13;8.20;;;;;;;1.24;55.66;96951.53;5032337;28;20265;-67
2021/03/08 01:04:46;;;;;;;9.90;7.60;;;;;;;1.20;56.08;96954.63;5023482;28;20630;-67
2021/03/08 01:07:12;;;;;;;9.23;8.07;;;;;;;1.16;56.36;96949.00;5012458;28;20226;-68
2021/03/08 01:09:38;;;;;;;10.20;8.40;;;;;;;1.12;56.85;96947.69;5039781;28;20206;-67
2021/03/08 01:12:05;;;;;;;11.00;8.33;;;;;;;1.06;56.33;96943.16;5023006;28;20236;-67
2021/03/08 01:14:32;;;;;;;8.97;8.03;;;;;;;1.04;56.66;96952.88;5031206;28;20262;-67
2021/03/08 01:16:57;;;;;;;9.67;8.20;;;;;;;1.09;56.20;96945.44;5023570;28;20163;-67
2021/03/08 01:19:23;;;;;;;10.13;8.07;;;;;;;1.09;56.53;96944.63;5040782;28;20243;-67
2021/03/08 01:21:48;;;;;;;9.90;8.13;;;;;;;0.98;57.10;96940.63;5017445;28;20176;-67
2021/03/08 01:24:14;;;;;;;9.87;8.13;;;;;;;1.01;56.67;96936.88;5036520;28;20176;-67
2021/03/08 01:26:39;;;;;;;11.13;8.13;;;;;;;0.90;57.15;96934.63;5027384;28;20629;-68
2021/03/08 01:29:05;;;;;;;10.47;8.50;;;;;;;0.94;57.08;96929.00;5037727;28;20746;-67
2021/03/08 01:31:30;;;;;;;9.87;8.70;;;;;;;0.80;57.54;96932.22;5017312;28;20670;-67
2021/03/08 01:33:56;;;;;;;9.87;8.33;;;;;;;0.81;57.74;96934.66;5041964;28;20262;-68
2021/03/08 01:36:21;;;;;;;10.67;8.40;;;;;;;0.80;58.11;96921.91;5013255;28;20194;-67
2021/03/08 01:38:47;;;;;;;11.80;8.80;;;;;;;0.77;58.32;96919.66;5030977;28;20229;-68
2021/03/08 01:41:16;;;;;;;13.47;9.23;;;;;;;0.76;58.01;96918.88;5022826;28;20182;-67
2021/03/08 01:43:41;;;;;;;11.53;8.47;;;;;;;0.72;58.22;96914.19;5042879;28;20209;-68
2021/03/08 01:46:08;;;;;;;10.97;8.70;;;;;;;0.48;59.39;96919.34;5019902;28;20218;-67
2021/03/08 01:48:33;;;;;;;12.67;8.80;;;;;;;0.58;59.21;96912.25;5031523;28;20736;-67
2021/03/08 01:50:59;;;;;;;14.47;9.27;;;;;;;0.50;59.51;96917.41;5023634;28;20182;-67
2021/03/08 01:53:28;;;;;;;10.97;9.03;;;;;;;0.40;59.87;96920.94;5016522;28;20556;-68
2021/03/08 01:55:54;;;;;;;12.17;8.90;;;;;;;0.24;60.38;96920.09;5027633;28;20645;-67
2021/03/08 01:58:20;;;;;;;12.23;9.60;;;;;;;0.23;61.55;96915.91;5037789;28;20321;-67
2021/03/08 02:00:46;;;;;;;13.53;9.37;;;;;;;0.25;61.72;96916.56;5027234;28;20265;-67
2021/03/08 02:03:11;;;;;;;11.60;9.07;;;;;;;0.12;62.14;96918.78;5036996;28;20620;-68
2021/03/08 02:05:45;;;;;;;14.27;9.13;;;;;;;0.01;62.28;96922.47;5037239;28;20170;-68
2021/03/08 02:08:14;;;;;;;17.07;9.20;;;;;;;-0.21;63.42;96923.84;5020612;28;20191;-68
2021/03/08 02:10:42;;;;;;;13.13;9.70;;;;;;;-0.18;63.88;96920.19;5036270;28;20220;-68
2021/03/08 02:13:30;;;;;;;13.53;10.60;;;;;;;-0.20;64.60;96914.38;5034478;28;20237;-67
2021/03/08 02:16:07;;;;;;;13.20;10.47;;;;;;;-0.40;65.87;96923.31;5029819;28;20176;-68
2021/03/08 02:19:00;;;;;;;17.70;11.90;;;;;;;-0.50;67.70;96923.41;5030628;28;20282;-67
2021/03/08 02:21:28;;;;;;;17.73;11.30;;;;;;;-0.67;68.81;96919.19;5045799;28;20187;-67
2021/03/08 02:24:02;;;;;;;16.27;11.40;;;;;;;-0.69;69.38;96919.31;5037735;28;20522;-68
2021/03/08 02:26:43;;;;;;;19.53;13.17;;;;;;;-0.80;70.61;96922.16;5022729;28;20173;-68
2021/03/08 02:29:31;;;;;;;18.93;12.57;;;;;;;-0.95;71.26;96915.97;5036201;28;20704;-68
2021/03/08 02:31:59;;;;;;;18.93;12.90;;;;;;;-0.99;71.67;96920.59;5035558;28;20257;-67
2021/03/08 02:34:29;;;;;;;18.33;12.63;;;;;;;-1.03;72.05;96918.47;5036207;28;20174;-68
2021/03/08 02:37:19;;;;;;;22.43;13.47;;;;;;;-1.11;72.57;96921.78;5015738;28;20198;-67
2021/03/08 02:39:48;;;;;;;19.60;13.20;;;;;;;-1.14;73.05;96918.72;5044824;28;20565;-67
2021/03/08 02:42:21;;;;;;;18.67;13.07;;;;;;;-1.15;73.32;96912.78;5021392;28;20192;-67
2021/03/08 02:44:47;;;;;;;16.70;12.83;;;;;;;-1.22;73.31;96914.31;5036727;28;20270;-67
2021/03/08 02:47:16;;;;;;;20.20;12.93;;;;;;;-1.14;73.02;96918.72;5036177;28;20170;-67
2021/03/08 02:49:46;;;;;;;18.07;12.93;;;;;;;-1.22;72.96;96911.75;5021796;28;20207;-67
2021/03/08 02:52:14;;;;;;;17.43;13.27;;;;;;;-1.25;73.69;96912.06;5046102;28;20671;-68
2021/03/08 02:54:52;;;;;;;18.63;12.93;;;;;;;-1.22;73.66;96904.03;5025239;28;20178;-68
2021/03/08 02:57:23;;;;;;;17.77;12.43;;;;;;;-1.24;73.61;96905.97;5011388;28;20653;-68
2021/03/08 02:59:50;;;;;;;17.73;12.53;;;;;;;-1.23;73.47;96905.00;4999620;28;20209;-68
2021/03/08 03:02:17;;;;;;;18.97;12.67;;;;;;;-1.16;73.27;96916.28;5031935;28;20183;-67
2021/03/08 03:04:46;;;;;;;17.17;12.20;;;;;;;-1.16;73.49;96900.06;5038619;28;20889;-67
2021/03/08 03:07:13;;;;;;;17.93;12.90;;;;;;;-1.06;72.65;96906.72;5049120;28;20193;-67
2021/03/08 03:09:42;;;;;;;16.77;12.93;;;;;;;-1.03;73.04;96909.00;5036012;28;20197;-67
2021/03/08 03:12:10;;;;;;;15.67;12.50;;;;;;;-1.00;72.76;96897.59;5037511;28;20270;-67
2021/03/08 03:14:36;;;;;;;16.97;12.37;;;;;;;-0.98;72.41;96893.91;5029969;28;20638;-67
2021/03/08 03:17:08;;;;;;;16.23;12.27;;;;;;;-1.03;72.58;96895.31;5021234;28;20167;-68
2021/03/08 03:19:38;;;;;;;16.77;11.90;;;;;;;-0.96;72.39;96904.88;5027708;28;20189;-67
2021/03/08 03:22:05;;;;;;;16.70;12.80;;;;;;;-0.85;71.71;96912.31;5041075;28;20185;-68
2021/03/08 03:24:32;;;;;;;16.57;12.60;;;;;;;-0.98;72.34;96918.81;5033172;28;20313;-67
2021/03/08 03:26:59;;;;;;;15.27;12.13;;;;;;;-0.94;72.55;96909.84;5029941;28;20711;-69
2021/03/08 03:29:26;;;;;;;17.80;12.00;;;;;;;-1.07;72.36;96912.84;5018822;28;20211;-67
2021/03/08 03:31:52;;;;;;;13.67;11.63;;;;;;;-1.11;72.99;96910.69;5031554;28;20185;-68
2021/03/08 03:34:20;;;;;;;17.07;12.63;;;;;;;-1.15;72.83;96914.53;5047374;28;20170;-67
2021/03/08 03:36:49;;;;;;;19.90;12.80;;;;;;;-1.19;73.21;96915.78;5028110;28;20178;-67
2021/03/08 03:39:15;;;;;;;15.13;11.83;;;;;;;-1.21;73.11;96915.94;5022173;28;20194;-68
2021/03/08 03:41:40;;;;;;;17.07;12.87;;;;;;;-1.10;72.96;96920.84;5020360;28;20178;-67
2021/03/08 03:44:08;;;;;;;18.07;12.87;;;;;;;-1.08;73.55;96924.06;5028426;28;20167;-67
2021/03/08 03:46:46;;;;;;;17.80;12.57;;;;;;;-1.02;72.98;96922.66;5029912;28;20195;-67
2021/03/08 03:49:16;;;;;;;17.50;12.70;;;;;;;-1.24;73.83;96920.59;5013220;28;20218;-68
2021/03/08 03:51:41;;;;;;;18.77;13.40;;;;;;;-1.18;73.50;96925.94;5021564;28;20660;-67
2021/03/08 03:54:08;;;;;;;17.20;12.50;;;;;;;-1.23;73.79;96930.72;5027071;28;20317;-67
2021/03/08 03:56:34;;;;;;;14.77;12.23;;;;;;;-1.29;73.74;96949.31;5027838;28;20216;-67
2021/03/08 03:59:15;;;;;;;15.87;12.43;;;;;;;-1.29;73.66;96941.59;5021317;28;20662;-67
2021/03/08 04:01:50;;;;;;;17.70;12.20;;;;;;;-1.18;72.80;96943.13;5022004;28;20217;-69
2021/03/08 04:04:20;;;;;;;16.80;12.47;;;;;;;-1.27;73.24;96947.38;5047205;28;20229;-67
2021/03/08 04:06:50;;;;;;;16.17;12.73;;;;;;;-1.26;73.94;96947.25;5035625;28;20186;-67
2021/03/08 04:09:18;;;;;;;16.77;12.57;;;;;;;-1.35;74.84;96957.63;5035861;28;20263;-67
2021/03/08 04:11:47;;;;;;;17.20;13.07;;;;;;;-1.39;74.35;96957.09;5036005;28;20178;-67
2021/03/08 04:14:17;;;;;;;17.37;12.97;;;;;;;-1.57;75.37;96960.63;5046898;28;20182;-67
2021/03/08 04:16:52;;;;;;;17.77;13.40;;;;;;;-1.46;75.52;96966.38;5034856;28;20178;-67
2021/03/08 04:19:20;;;;;;;19.37;13.90;;;;;;;-1.58;75.86;96969.28;5015575;28;20284;-67
2021/03/08 04:21:47;;;;;;;18.93;13.33;;;;;;;-1.61;76.32;96961.84;5034238;28;20640;-67
2021/03/08 04:24:13;;;;;;;15.90;12.43;;;;;;;-1.71;76.83;96961.94;5024035;28;20179;-67
2021/03/08 04:26:40;;;;;;;20.67;13.77;;;;;;;-1.72;76.63;96966.25;5037985;28;20197;-67
2021/03/08 04:29:07;;;;;;;19.83;13.40;;;;;;;-1.57;75.75;96973.47;5032994;28;20212;-67
2021/03/08 04:31:34;;;;;;;19.17;14.40;;;;;;;-1.51;75.29;96967.75;5017536;28;20629;-67
2021/03/08 04:34:03;;;;;;;20.37;15.10;;;;;;;-1.45;75.52;96978.22;5048050;28;20174;-67
2021/03/08 04:36:29;;;;;;;20.53;14.40;;;;;;;-1.55;75.16;96968.97;5030563;28;20233;-68
2021/03/08 04:38:55;;;;;;;23.23;15.37;;;;;;;-1.69;76.39;96968.56;5026528;28;20203;-67
2021/03/08 04:41:24;;;;;;;18.67;13.90;;;;;;;-1.93;77.53;96968.31;5014212;28;20187;-67
2021/03/08 04:43:49;;;;;;;20.70;13.83;;;;;;;-2.09;78.30;96978.38;5040127;28;20205;-67
2021/03/08 04:46:15;;;;;;;19.77;13.83;;;;;;;-2.01;78.17;96981.06;5028411;28;20215;-67
2021/03/08 04:48:41;;;;;;;18.03;13.67;;;;;;;-1.97;78.06;96982.38;5033955;28;20212;-67
2021/03/08 04:51:10;;;;;;;18.80;13.83;;;;;;;-2.02;78.02;96982.00;5035458;28;20680;-67
2021/03/08 04:53:36;;;;;;;21.63;15.40;;;;;;;-2.05;78.21;96984.03;5007936;28;20542;-67
2021/03/08 04:56:03;;;;;;;20.20;14.00;;;;;;;-2.08;78.20;96986.91;5036961;28;20649;-67
2021/03/08 04:58:30;;;;;;;19.70;13.70;;;;;;;-1.99;78.43;96991.16;5014152;28;20246;-67
2021/03/08 05:00:56;;;;;;;17.43;13.33;;;;;;;-1.94;78.09;96986.41;5037647;28;20198;-67
2021/03/08 05:03:26;;;;;;;18.07;13.17;;;;;;;-1.95;77.93;96992.53;5049258;28;20221;-68
2021/03/08 05:05:55;;;;;;;20.03;13.97;;;;;;;-1.94;78.19;96992.34;5019153;28;20181;-67
2021/03/08 05:08:23;;;;;;;17.03;12.90;;;;;;;-1.81;77.23;96989.44;5034145;28;20207;-67
2021/03/08 05:10:51;;;;;;;20.67;14.43;;;;;;;-1.85;77.93;96998.41;5013030;28;20554;-67
2021/03/08 05:13:17;;;;;;;20.77;13.60;;;;;;;-1.84;77.36;96997.47;5042433;28;20170;-67
2021/03/08 05:15:43;;;;;;;20.80;13.70;;;;;;;-2.01;77.85;96998.22;5018012;28;20256;-67
2021/03/08 05:18:11;;;;;;;18.10;13.10;;;;;;;-2.04;78.79;97001.88;5020280;28;20226;-67
2021/03/08 05:20:38;;;;;;;20.83;13.20;;;;;;;-1.97;78.34;97002.13;5030703;28;20182;-67
2021/03/08 05:23:04;;;;;;;17.40;12.93;;;;;;;-2.05;78.14;97002.81;5022690;28;20185;-67
2021/03/08 05:25:31;;;;;;;16.57;13.37;;;;;;;-1.98;78.55;97005.63;5018842;28;20176;-67
2021/03/08 05:27:58;;;;;;;18.27;13.73;;;;;;;-1.94;78.09;97001.81;5042528;28;20272;-67
2021/03/08 05:30:25;;;;;;;20.23;13.40;;;;;;;-1.87;77.48;96997.72;5026526;28;20206;-67
2021/03/08 05:32:53;;;;;;;16.43;12.27;;;;;;;-1.92;77.71;97000.75;5041108;28;20177;-69
2021/03/08 05:35:22;;;;;;;17.67;12.93;;;;;;;-1.91;78.32;97006.69;5023973;28;20183;-67
2021/03/08 05:37:49;;;;;;;22.20;14.30;;;;;;;-1.88;78.36;97003.81;5039692;28;20650;-67
2021/03/08 05:40:27;;;;;;;18.87;14.20;;;;;;;-1.75;77.93;97007.66;5042279;28;20199;-67
2021/03/08 05:43:01;;;;;;;18.23;13.57;;;;;;;-1.75;77.81;97001.72;5025601;28;20225;-67
2021/03/08 05:45:30;;;;;;;19.63;14.17;;;;;;;-1.84;77.72;97005.94;5031550;28;20260;-68
2021/03/08 05:48:25;;;;;;;18.87;13.70;;;;;;;-1.84;78.29;97011.09;5025806;28;20228;-67
2021/03/08 05:51:27;;;;;;;20.03;13.83;;;;;;;-1.82;78.40;97016.09;5050530;28;20255;-67
2021/03/08 05:54:02;;;;;;;19.03;13.57;;;;;;;-1.82;78.10;97009.19;5014542;28;20186;-67
2021/03/08 05:56:46;;;;;;;18.77;13.70;;;;;;;-1.65;78.28;97014.50;5032543;28;20212;-67
2021/03/08 05:59:37;;;;;;;20.53;14.00;;;;;;;-1.60;78.03;97017.44;5019515;28;20234;-69
2021/03/08 06:02:05;;;;;;;20.00;13.70;;;;;;;-1.76;78.39;97021.47;5014750;28;20498;-69
2021/03/08 06:04:52;;;;;;;20.00;14.27;;;;;;;-1.81;79.21;97027.97;5032461;28;20651;-67
2021/03/08 06:07:55;;;;;;;19.30;14.37;;;;;;;-1.67;78.64;97027.47;5023611;28;20366;-67
2021/03/08 06:10:25;;;;;;;19.10;15.43;;;;;;;-1.48;78.06;97014.53;5014287;28;20870;-68
2021/03/08 06:12:54;;;;;;;18.03;13.90;;;;;;;-1.34;77.24;97026.84;5024291;28;20197;-68
2021/03/08 06:15:21;;;;;;;20.63;14.07;;;;;;;-1.32;77.08;97030.09;5031067;28;20167;-68
2021/03/08 06:17:50;;;;;;;18.73;13.63;;;;;;;-1.26;76.23;97026.94;5031016;28;20174;-68
2021/03/08 06:20:18;;;;;;;20.63;14.07;;;;;;;-1.11;76.02;97022.06;5038754;28;20232;-68
2021/03/08 06:22:44;;;;;;;18.07;13.50;;;;;;;-1.33;76.76;97015.63;5033818;28;20206;-68
2021/03/08 06:25:11;;;;;;;20.80;13.77;;;;;;;-1.09;76.86;97016.78;5021581;28;20634;-69
2021/03/08 06:27:37;;;;;;;19.20;14.07;;;;;;;-0.85;75.94;97019.56;5045330;28;20319;-68
2021/03/08 06:30:04;;;;;;;19.43;13.47;;;;;;;-0.66;74.64;97021.13;5035890;28;20203;-68
2021/03/08 06:32:30;;;;;;;20.50;14.20;;;;;;;-0.49;74.00;97025.44;5036996;28;20178;-68
2021/03/08 06:34:56;;;;;;;20.33;13.93;;;;;;;-0.27;73.67;97030.06;5032606;28;20311;-68
2021/03/08 06:37:25;;;;;;;19.87;13.97;;;;;;;-0.23;73.05;97028.81;5029875;28;20270;-68
2021/03/08 06:39:51;;;;;;;17.03;13.80;;;;;;;-0.04;72.25;97032.91;5015663;28;20580;-65
2021/03/08 06:42:17;;;;;;;17.03;12.73;;;;;;;0.28;71.02;97033.03;5044817;28;20179;-68
2021/03/08 06:44:50;;;;;;;20.27;13.73;;;;;;;0.10;71.39;97039.25;5029451;28;20800;-67
2021/03/08 06:47:19;;;;;;;20.90;14.50;;;;;;;0.03;72.30;97049.38;5029421;28;20186;-67
2021/03/08 06:49:45;;;;;;;20.57;14.00;;;;;;;0.16;71.60;97048.94;5029753;28;20219;-67
2021/03/08 06:52:21;;;;;;;21.30;13.87;;;;;;;0.16;71.08;97057.50;5039641;28;20187;-67
2021/03/08 06:55:01;;;;;;;19.57;14.83;;;;;;;0.12;71.69;97053.59;5032876;28;20183;-67
2021/03/08 06:57:31;;;;;;;20.00;13.07;;;;;;;0.09;72.10;97056.50;5021150;28;20226;-68
2021/03/08 06:59:58;;;;;;;17.63;13.77;;;;;;;0.23;71.38;97061.03;5022223;28;20293;-67
2021/03/08 07:02:52;;;;;;;18.67;13.23;;;;;;;0.49;70.57;97050.69;5040128;28;20183;-67
2021/03/08 07:05:35;;;;;;;16.50;12.03;;;;;;;0.68;69.78;97052.97;5023585;28;20521;-66
2021/03/08 07:08:01;;;;;;;16.73;13.47;;;;;;;0.91;68.74;97050.59;5039208;28;20178;-66
2021/03/08 07:10:31;;;;;;;15.87;13.07;;;;;;;0.91;68.53;97054.94;5029211;28;20544;-69
2021/03/08 07:12:57;;;;;;;16.60;13.73;;;;;;;1.10;68.33;97057.22;5036271;28;20182;-68
2021/03/08 07:15:22;;;;;;;19.80;14.40;;;;;;;1.27;67.48;97060.63;5035534;28;20178;-66
2021/03/08 07:17:48;;;;;;;16.77;13.17;;;;;;;1.48;66.31;97055.75;5032006;28;20206;-66
2021/03/08 07:20:16;;;;;;;15.77;13.27;;;;;;;1.60;65.93;97057.03;5020649;28;20232;-66
2021/03/08 07:22:50;;;;;;;15.60;12.90;;;;;;;1.71;65.66;97055.88;5034419;28;20170;-66
2021/03/08 07:25:32;;;;;;;17.00;12.67;;;;;;;1.74;65.04;97056.34;5028855;28;20199;-66
2021/03/08 07:27:59;;;;;;;19.53;14.00;;;;;;;1.79;65.07;97056.66;5018367;28;20268;-67
2021/03/08 07:30:52;;;;;;;15.10;12.73;;;;;;;1.91;65.54;97072.63;5048582;28;20265;-68
2021/03/08 07:33:17;;;;;;;17.67;13.57;;;;;;;1.66;64.93;97071.88;5022476;28;20223;-66
2021/03/08 07:35:48;;;;;;;19.10;14.47;;;;;;;1.61;65.51;97071.56;5024779;28;20183;-66
2021/03/08 07:38:15;;;;;;;19.20;14.03;;;;;;;1.61;65.45;97079.31;5022781;28;20183;-66
2021/03/08 07:40:43;;;;;;;17.00;14.03;;;;;;;1.12;67.96;97084.47;5023887;28;20178;-66
2021/03/08 07:43:22;;;;;;;19.40;15.03;;;;;;;1.00;68.49;97088.34;5023787;28;20175;-66
2021/03/08 07:45:48;;;;;;;20.80;15.93;;;;;;;0.43;70.84;97097.72;5018421;28;20243;-67
2021/03/08 07:48:24;;;;;;;20.47;16.43;;;;;;;-0.04;72.52;97094.72;5024402;28;20585;-66
2021/03/08 07:50:52;;;;;;;23.40;16.73;;;;;;;-0.12;73.16;97090.38;5037363;28;20197;-66
2021/03/08 07:53:32;;;;;;;23.73;16.37;;;;;;;0.11;72.99;97095.00;5032971;28;20209;-66
2021/03/08 07:56:05;;;;;;;28.43;16.90;;;;;;;-0.30;74.55;97091.38;5037231;28;20182;-66
2021/03/08 07:58:36;;;;;;;26.83;17.27;;;;;;;-0.05;74.11;97091.34;5019738;28;20235;-66
2021/03/08 08:01:04;;;;;;;23.97;16.67;;;;;;;0.15;73.16;97088.56;5040046;28;20240;-67
2021/03/08 08:03:30;;;;;;;24.40;17.40;;;;;;;0.02;74.21;97086.41;5024836;28;20174;-66
2021/03/08 08:06:08;;;;;;;25.53;15.90;;;;;;;0.18;73.35;97090.81;5018944;28;20240;-66
2021/03/08 08:08:35;;;;;;;26.13;17.33;;;;;;;0.33;71.88;97099.59;5030574;28;20234;-66
2021/03/08 08:11:04;;;;;;;26.27;16.77;;;;;;;0.27;72.47;97093.31;5029226;28;20238;-66
2021/03/08 08:13:42;;;;;;;20.63;14.97;;;;;;;0.02;72.99;97095.91;5034949;28;20178;-66
2021/03/08 08:16:09;;;;;;;18.97;15.13;;;;;;;0.22;72.51;97097.31;5026154;28;20168;-66
2021/03/08 08:18:43;;;;;;;20.43;14.77;;;;;;;0.25;71.48;97102.94;5040941;28;20672;-66
2021/03/08 08:21:17;;;;;;;21.30;15.20;;;;;;;0.02;72.20;97104.44;5028854;28;20716;-66
2021/03/08 08:23:45;;;;;;;20.27;14.53;;;;;;;0.12;72.04;97104.31;5019398;28;20169;-66
2021/03/08 08:26:17;;;;;;;22.07;16.43;;;;;;;-0.03;73.24;97109.25;5028624;28;20517;-66
2021/03/08 08:28:45;;;;;;;21.43;15.30;;;;;;;0.02;72.58;97109.59;5042340;28;20205;-66
2021/03/08 08:31:11;;;;;;;19.43;14.97;;;;;;;0.15;72.50;97109.19;5048622;28;20214;-66
2021/03/08 08:33:36;;;;;;;21.67;15.53;;;;;;;0.17;72.23;97104.69;5018889;28;20167;-66
2021/03/08 08:36:10;;;;;;;21.33;14.60;;;;;;;-0.04;72.40;97111.00;5016875;28;20230;-67
2021/03/08 08:38:57;;;;;;;21.10;14.90;;;;;;;0.10;71.87;97101.09;5012031;28;20269;-67
2021/03/08 08:41:27;;;;;;;21.23;15.03;;;;;;;0.28;71.61;97104.41;5008698;28;20204;-66
2021/03/08 08:44:12;;;;;;;19.33;14.10;;;;;;;0.50;70.65;97103.88;5020428;28;20222;-66
2021/03/08 08:46:47;;;;;;;18.67;14.53;;;;;;;0.60;70.05;97107.13;5032689;28;20171;-66
2021/03/08 08:49:13;;;;;;;15.93;13.50;;;;;;;0.66;70.41;97105.69;5000953;28;20293;-66
2021/03/08 08:51:48;;;;;;;17.13;13.83;;;;;;;0.97;71.76;97103.31;5021089;28;20183;-66
2021/03/08 08:54:39;;;;;;;22.27;14.80;;;;;;;0.93;68.89;97109.78;5033366;28;20183;-66
2021/03/08 08:57:12;;;;;;;19.33;14.10;;;;;;;0.93;70.38;97105.44;4980985;28;20199;-69
2021/03/08 08:59:38;;;;;;;20.60;13.33;;;;;;;1.38;70.28;97104.19;5021217;28;20229;-66
2021/03/08 09:02:18;;;;;;;16.97;13.13;;;;;;;1.31;67.71;97110.94;5016420;28;20613;-66
2021/03/08 09:04:44;;;;;;;17.87;14.17;;;;;;;1.49;67.70;97104.69;5027675;28;20350;-67
2021/03/08 09:07:29;;;;;;;17.63;13.97;;;;;;;1.47;66.97;97108.38;5036019;28;20204;-67
2021/03/08 09:10:00;;;;;;;17.93;14.10;;;;;;;1.26;67.68;97108.84;5031503;28;20691;-67
2021/03/08 09:12:28;;;;;;;16.67;13.00;;;;;;;0.84;68.66;97114.09;5043274;28;20185;-67
2021/03/08 09:14:55;;;;;;;17.27;13.13;;;;;;;1.38;68.55;97106.78;5035641;28;20655;-67
2021/03/08 09:17:30;;;;;;;17.17;13.63;;;;;;;1.65;66.89;97096.09;5040498;28;20173;-67
2021/03/08 09:19:55;;;;;;;16.27;13.37;;;;;;;1.59;66.19;97107.09;5025595;28;20206;-67
2021/03/08 09:22:24;;;;;;;16.70;14.03;;;;;;;1.48;66.84;97110.00;5036258;28;20274;-67
2021/03/08 09:25:08;;;;;;;20.53;14.60;;;;;;;1.47;66.87;97108.38;5046323;28;20188;-67
2021/03/08 09:27:38;;;;;;;18.83;14.10;;;;;;;1.60;67.27;97116.44;5023486;28;20202;-67
2021/03/08 09:30:05;;;;;;;16.87;14.17;;;;;;;1.74;66.16;97105.44;5004908;28;20211;-67
2021/03/08 09:32:32;;;;;;;16.87;13.10;;;;;;;1.67;65.98;97114.84;5049159;28;20201;-67
2021/03/08 09:35:06;;;;;;;19.43;14.07;;;;;;;1.75;65.90;97109.66;5031671;28;20189;-68
2021/03/08 09:37:32;;;;;;;17.10;13.07;;;;;;;1.76;65.64;97107.88;5027580;28;20173;-67
2021/03/08 09:39:59;;;;;;;17.03;14.27;;;;;;;1.91;65.36;97111.41;5020607;28;20199;-68
2021/03/08 09:42:32;;;;;;;15.93;13.77;;;;;;;1.83;65.00;97101.09;5038404;28;20277;-67
2021/03/08 09:44:58;;;;;;;17.33;13.43;;;;;;;1.77;65.84;97106.91;5021878;28;20186;-68
2021/03/08 09:47:38;;;;;;;16.20;13.70;;;;;;;1.93;65.07;97102.53;5032208;28;20626;-67
2021/03/08 09:50:04;;;;;;;18.20;13.93;;;;;;;1.68;65.66;97103.50;5019516;28;20233;-67
2021/03/08 09:52:40;;;;;;;15.50;12.30;;;;;;;1.78;65.43;97108.53;5033194;28;20231;-67
2021/03/08 09:55:09;;;;;;;16.67;12.77;;;;;;;1.65;66.08;97102.09;5029595;28;20186;-69
2021/03/08 09:57:42;;;;;;;16.73;13.03;;;;;;;1.89;64.35;97100.44;5032085;28;20238;-67
2021/03/08 10:00:13;;;;;;;16.03;13.07;;;;;;;2.11;65.29;97094.56;5027603;28;20617;-67
2021/03/08 10:02:39;;;;;;;16.03;12.73;;;;;;;2.32;64.77;97102.59;5014350;28;20167;-67
2021/03/08 10:05:07;;;;;;;16.00;13.33;;;;;;;2.34;63.58;97092.84;5013408;28;20226;-67
2021/03/08 10:07:32;;;;;;;16.40;14.07;;;;;;;2.36;63.12;97098.69;5014621;28;20199;-69
2021/03/08 10:10:09;;;;;;;18.43;14.20;;;;;;;2.48;62.86;97097.34;5020183;28;20611;-67
2021/03/08 10:12:34;;;;;;;15.77;12.53;;;;;;;2.19;63.38;97099.69;5035076;28;20190;-67
2021/03/08 10:15:01;;;;;;;17.83;13.80;;;;;;;2.15;63.04;97098.44;5022498;28;20610;-67
2021/03/08 10:17:26;;;;;;;16.73;13.07;;;;;;;2.08;63.98;97100.06;5044327;28;20171;-67
2021/03/08 10:20:00;;;;;;;15.07;13.03;;;;;;;2.19;63.86;97089.38;5021086;28;20253;-67
2021/03/08 10:22:39;;;;;;;16.40;12.87;;;;;;;2.33;64.17;97093.84;5014677;28;20187;-67
2021/03/08 10:25:25;;;;;;;15.20;13.40;;;;;;;2.30;63.28;97089.00;5040749;28;20651;-67
2021/03/08 10:27:55;;;;;;;16.57;13.00;;;;;;;2.38;62.77;97095.94;5051519;28;20217;-67
2021/03/08 10:30:23;;;;;;;14.17;12.37;;;;;;;2.35;62.82;97094.47;4996358;28;20182;-67
2021/03/08 10:32:52;;;;;;;14.47;12.20;;;;;;;2.54;62.09;97090.69;5028602;28;20186;-67
2021/03/08 10:35:18;;;;;;;20.63;12.93;;;;;;;2.57;61.71;97103.28;5034988;28;20254;-66
2021/03/08 10:37:44;;;;;;;15.50;12.50;;;;;;;2.60;61.72;97096.97;5027214;28;20182;-66
2021/03/08 10:40:10;;;;;;;14.03;11.77;;;;;;;2.73;62.15;97105.78;5034997;28;20206;-66
2021/03/08 10:42:37;;;;;;;14.90;12.40;;;;;;;2.91;61.54;97093.41;5036367;28;20174;-66
2021/03/08 10:45:05;;;;;;;14.00;12.50;;;;;;;2.84;61.14;97097.63;5046858;28;20205;-66
2021/03/08 10:47:31;;;;;;;13.83;12.43;;;;;;;2.90;61.88;97094.38;5030789;28;20238;-66
2021/03/08 10:49:57;;;;;;;14.33;12.23;;;;;;;2.90;60.04;97093.56;5026237;28;21719;-66
2021/03/08 10:52:23;;;;;;;15.33;12.30;;;;;;;2.98;61.05;97083.16;5027318;28;20190;-66
2021/03/08 10:54:49;;;;;;;13.47;12.07;;;;;;;3.20;60.25;97091.94;5026804;28;20646;-66
2021/03/08 10:57:15;;;;;;;14.53;12.20;;;;;;;3.24;59.64;97082.81;5028791;28;20822;-67
2021/03/08 10:59:46;;;;;;;15.00;12.00;;;;;;;3.30;59.13;97082.94;5004588;28;20210;-66
2021/03/08 11:02:14;;;;;;;13.47;10.90;;;;;;;3.32;57.89;97095.72;5040478;28;20270;-66
2021/03/08 11:04:41;;;;;;;11.50;10.30;;;;;;;3.23;57.05;97089.00;5041727;28;20260;-66
2021/03/08 11:07:06;;;;;;;10.90;9.80;;;;;;;3.05;56.85;97086.69;5041016;28;20265;-66
2021/03/08 11:09:37;;;;;;;11.83;9.97;;;;;;;3.21;57.31;97081.41;5031218;28;20280;-67
2021/03/08 11:12:05;;;;;;;11.83;9.93;;;;;;;3.67;56.17;97081.34;5025213;28;20644;-67
2021/03/08 11:15:06;;;;;;;14.33;9.83;;;;;;;3.77;55.19;97087.09;5031900;28;20182;-66
2021/03/08 11:17:40;;;;;;;11.20;9.57;;;;;;;3.75;55.41;97079.47;4948691;29;20192;-67
2021/03/08 11:20:07;;;;;;;10.70;9.30;;;;;;;3.84;53.84;97085.41;5017943;28;20218;-67
2021/03/08 11:22:51;;;;;;;10.30;9.13;;;;;;;3.96;53.42;97083.97;5028756;28;20235;-66
2021/03/08 11:25:37;;;;;;;11.47;9.50;;;;;;;3.69;52.19;97090.56;5033996;28;20319;-67
2021/03/08 11:28:14;;;;;;;13.23;10.10;;;;;;;3.66;53.22;97088.31;5023104;28;20193;-67
2021/03/08 11:30:44;;;;;;;11.20;10.10;;;;;;;3.76;52.70;97095.84;5040450;28;20182;-66
2021/03/08 11:33:11;;;;;;;10.57;9.50;;;;;;;3.75;53.38;97089.03;5037092;28;20586;-66
2021/03/08 11:35:39;;;;;;;11.57;10.20;;;;;;;3.92;52.70;97089.69;5040303;28;20178;-67
2021/03/08 11:38:06;;;;;;;12.40;9.57;;;;;;;3.91;52.70;97086.28;5031811;28;20226;-67